createdAt,value
2022-12-19T00:01:54.033Z,101372.69
2022-12-19T00:04:21.287Z,101374.47
2022-12-19T00:06:48.229Z,101371.22
2022-12-19T00:09:15.300Z,101365.16
2022-12-19T00:11:42.782Z,101360.75
2022-12-19T00:14:12.846Z,101357.25
2022-12-19T00:16:39.838Z,101354.00
2022-12-19T00:19:07.450Z,101353.22
2022-12-19T00:21:35.673Z,101348.06
2022-12-19T00:24:10.479Z,101338.47
2022-12-19T00:26:49.222Z,101348.94
2022-12-19T00:29:16.368Z,101347.16
2022-12-19T00:31:43.541Z,101339.25
2022-12-19T00:34:10.793Z,101338.38
2022-12-19T00:36:37.950Z,101331.28
2022-12-19T00:39:08.100Z,101328.91
2022-12-19T00:41:41.780Z,101322.84
2022-12-19T00:44:14.483Z,101326.44
2022-12-19T00:46:42.654Z,101325.19
2022-12-19T00:49:13.317Z,101329.03
2022-12-19T00:51:40.315Z,101335.00
2022-12-19T00:54:07.992Z,101322.47
2022-12-19T00:56:37.326Z,101325.31
2022-12-19T00:59:06.201Z,101319.34
2022-12-19T01:01:41.485Z,101314.94
2022-12-19T01:04:28.139Z,101321.94
2022-12-19T01:06:57.923Z,101321.16
2022-12-19T01:09:30.792Z,101320.38
2022-12-19T01:12:16.683Z,101325.53
2022-12-19T01:14:43.695Z,101322.94
2022-12-19T01:17:10.683Z,101320.38
2022-12-19T01:19:43.401Z,101315.19
2022-12-19T01:22:13.439Z,101306.53
2022-12-19T01:24:41.377Z,101305.63
2022-12-19T01:27:08.821Z,101302.38
2022-12-19T01:29:37.617Z,101299.00
2022-12-19T01:32:20.262Z,101304.84
2022-12-19T01:34:47.237Z,101318.78
2022-12-19T01:37:17.408Z,101314.41
2022-12-19T01:39:46.036Z,101309.22
2022-12-19T01:42:19.619Z,101301.69
2022-12-19T01:45:07.554Z,101308.00
2022-12-19T01:47:56.670Z,101298.31
2022-12-19T01:50:35.587Z,101298.44
2022-12-19T01:53:04.952Z,101302.94
2022-12-19T01:55:31.962Z,101303.72
2022-12-19T01:58:00.295Z,101301.03
2022-12-19T02:00:27.323Z,101298.56
2022-12-19T02:03:06.676Z,101296.97
2022-12-19T02:05:36.140Z,101298.00
2022-12-19T02:08:04.213Z,101289.31
2022-12-19T02:10:31.262Z,101299.69
2022-12-19T02:12:58.730Z,101298.91
2022-12-19T02:15:33.671Z,101304.19
2022-12-19T02:18:36.181Z,101299.13
2022-12-19T02:21:15.144Z,101285.28
2022-12-19T02:23:59.828Z,101283.81
2022-12-19T02:26:29.820Z,101282.03
2022-12-19T02:29:11.802Z,101280.56
2022-12-19T02:31:58.988Z,101277.97
2022-12-19T02:34:44.285Z,101270.22
2022-12-19T02:37:21.596Z,101272.00
2022-12-19T02:40:04.569Z,101274.47
2022-12-19T02:42:39.350Z,101286.88
2022-12-19T02:45:10.654Z,101282.72
2022-12-19T02:47:38.731Z,101278.22
2022-12-19T02:50:07.712Z,101287.09
2022-12-19T02:52:34.645Z,101279.22
2022-12-19T02:55:07.945Z,101285.56
2022-12-19T02:58:17.173Z,101289.84
2022-12-19T03:01:24.478Z,101287.47
2022-12-19T03:03:56.605Z,101271.72
2022-12-19T03:06:41.138Z,101270.38
2022-12-19T03:09:24.943Z,101271.16
2022-12-19T03:12:01.873Z,101279.03
2022-12-19T03:14:31.349Z,101277.34
2022-12-19T03:17:05.480Z,101277.47
2022-12-19T03:19:35.192Z,101275.66
2022-12-19T03:22:02.431Z,101278.38
2022-12-19T03:24:29.732Z,101280.97
2022-12-19T03:27:09.231Z,101291.66
2022-12-19T03:29:40.410Z,101285.56
2022-12-19T03:32:15.125Z,101279.50
2022-12-19T03:35:13.180Z,101283.09
2022-12-19T03:37:43.239Z,101289.97
2022-12-19T03:40:21.743Z,101279.84
2022-12-19T03:43:12.105Z,101284.13
2022-12-19T03:46:23.040Z,101284.91
2022-12-19T03:48:55.277Z,101289.41
2022-12-19T03:51:40.537Z,101290.19
2022-12-19T03:54:21.914Z,101285.25
2022-12-19T03:57:12.109Z,101278.38
2022-12-19T04:00:05.566Z,101278.38
2022-12-19T04:02:38.116Z,101284.56
2022-12-19T04:05:12.289Z,101287.16
2022-12-19T04:07:40.239Z,101294.81
2022-12-19T04:10:13.023Z,101288.97
2022-12-19T04:12:54.030Z,101290.75
2022-12-19T04:15:42.137Z,101289.06
2022-12-19T04:18:14.201Z,101284.91
2022-12-19T04:20:45.965Z,101284.22
2022-12-19T04:23:23.066Z,101283.31
2022-12-19T04:25:55.899Z,101296.63
2022-12-19T04:28:27.172Z,101285.91
2022-12-19T04:30:55.150Z,101269.59
2022-12-19T04:33:22.135Z,101269.47
2022-12-19T04:35:49.342Z,101264.41
2022-12-19T04:38:16.379Z,101258.31
2022-12-19T04:40:43.416Z,101255.72
2022-12-19T04:43:10.553Z,101274.09
2022-12-19T04:45:37.881Z,101266.31
2022-12-19T04:48:05.357Z,101258.88
2022-12-19T04:50:35.494Z,101240.06
2022-12-19T04:53:03.050Z,101247.03
2022-12-19T04:55:30.119Z,101248.63
2022-12-19T04:57:57.170Z,101249.53
2022-12-19T05:00:24.471Z,101250.44
2022-12-19T05:02:51.651Z,101254.03
2022-12-19T05:05:19.094Z,101254.03
2022-12-19T05:07:47.129Z,101252.34
2022-12-19T05:10:14.487Z,101237.47
2022-12-19T05:12:41.476Z,101239.50
2022-12-19T05:15:09.514Z,101242.19
2022-12-19T05:17:36.572Z,101238.81
2022-12-19T05:20:04.597Z,101234.44
2022-12-19T05:22:31.706Z,101233.53
2022-12-19T05:24:58.819Z,101240.50
2022-12-19T05:27:25.805Z,101250.97
2022-12-19T05:29:52.840Z,101254.59
2022-12-19T05:32:19.827Z,101233.19
2022-12-19T05:34:46.819Z,101241.16
2022-12-19T05:37:13.860Z,101228.22
2022-12-19T05:39:40.846Z,101224.94
2022-12-19T05:42:12.134Z,101230.13
2022-12-19T05:44:39.701Z,101230.13
2022-12-19T05:47:06.846Z,101238.00
2022-12-19T05:49:33.812Z,101243.41
2022-12-19T05:52:00.811Z,101248.47
2022-12-19T05:54:28.409Z,101239.13
2022-12-19T05:56:55.631Z,101225.38
2022-12-19T05:59:22.680Z,101230.56
2022-12-19T06:01:49.796Z,101234.94
2022-12-19T06:04:16.828Z,101217.72
2022-12-19T06:06:44.052Z,101218.72
2022-12-19T06:09:11.007Z,101223.22
2022-12-19T06:11:38.077Z,101217.13
2022-12-19T06:14:07.998Z,101219.84
2022-12-19T06:16:35.009Z,101224.00
2022-12-19T06:19:02.058Z,101226.72
2022-12-19T06:21:29.038Z,101219.03
2022-12-19T06:23:56.114Z,101224.34
2022-12-19T06:26:23.580Z,101226.94
2022-12-19T06:28:52.801Z,101222.75
2022-12-19T06:31:22.845Z,101221.97
2022-12-19T06:33:50.617Z,101218.34
2022-12-19T06:36:22.514Z,101219.25
2022-12-19T06:38:51.019Z,101211.59
2022-12-19T06:41:37.941Z,101217.78
2022-12-19T06:44:09.108Z,101225.56
2022-12-19T06:46:37.533Z,101213.50
2022-12-19T06:49:05.138Z,101213.50
2022-12-19T06:51:32.543Z,101206.50
2022-12-19T06:53:59.580Z,101204.81
2022-12-19T06:56:26.956Z,101206.63
2022-12-19T06:58:54.379Z,101205.81
2022-12-19T07:02:05.047Z,101203.22
2022-12-19T07:04:41.683Z,101215.50
2022-12-19T07:07:08.706Z,101206.03
2022-12-19T07:09:35.865Z,101198.25
2022-12-19T07:12:03.523Z,101201.06
2022-12-19T07:14:30.702Z,101215.03
2022-12-19T07:17:01.453Z,101207.16
2022-12-19T07:19:30.750Z,101207.47
2022-12-19T07:21:59.423Z,101203.19
2022-12-19T07:24:26.470Z,101210.06
2022-12-19T07:26:53.658Z,101207.47
2022-12-19T07:29:20.644Z,101216.16
2022-12-19T07:31:47.782Z,101212.66
2022-12-19T07:34:14.883Z,101213.66
2022-12-19T07:36:41.884Z,101225.06
2022-12-19T07:39:09.026Z,101230.25
2022-12-19T07:41:40.130Z,101237.44
2022-12-19T07:44:07.851Z,101236.66
2022-12-19T07:46:35.344Z,101235.97
2022-12-19T07:49:02.377Z,101238.56
2022-12-19T07:51:29.797Z,101229.88
2022-12-19T07:53:56.937Z,101228.28
2022-12-19T07:56:25.506Z,101223.09
2022-12-19T07:58:53.159Z,101226.69
2022-12-19T08:01:20.555Z,101228.50
2022-12-19T08:03:47.738Z,101227.72
2022-12-19T08:06:14.743Z,101229.41
2022-12-19T08:08:41.912Z,101228.59
2022-12-19T08:11:18.924Z,101227.13
2022-12-19T08:13:47.184Z,101216.75
2022-12-19T08:16:15.416Z,101215.25
2022-12-19T08:18:42.633Z,101222.34
2022-12-19T08:21:10.948Z,101219.06
2022-12-19T08:23:41.358Z,101232.25
2022-12-19T08:26:13.425Z,101240.84
2022-12-19T08:28:40.990Z,101227.06
2022-12-19T08:31:12.169Z,101225.28
2022-12-19T08:33:41.079Z,101224.69
2022-12-19T08:36:11.956Z,101223.09
2022-12-19T08:38:42.504Z,101223.34
2022-12-19T08:41:09.983Z,101219.84
2022-12-19T08:43:38.252Z,101219.94
2022-12-19T08:46:06.542Z,101222.66
2022-12-19T08:48:34.982Z,101228.94
2022-12-19T08:51:07.932Z,101232.66
2022-12-19T08:53:39.210Z,101232.66
2022-12-19T08:56:26.541Z,101218.09
2022-12-19T08:58:56.089Z,101229.47
2022-12-19T09:01:24.194Z,101214.81
2022-12-19T09:04:06.581Z,101205.63
2022-12-19T09:06:38.922Z,101199.53
2022-12-19T09:09:06.202Z,101205.63
2022-12-19T09:11:33.736Z,101214.72
2022-12-19T09:14:05.307Z,101196.56
2022-12-19T09:16:32.403Z,101205.34
2022-12-19T09:18:59.540Z,101216.84
2022-12-19T09:21:29.499Z,101214.44
2022-12-19T09:24:07.032Z,101229.63
2022-12-19T09:26:35.720Z,101214.06
2022-12-19T09:29:05.095Z,101211.56
2022-12-19T09:31:55.749Z,101218.88
2022-12-19T09:34:37.381Z,101215.56
2022-12-19T09:37:08.589Z,101218.38
2022-12-19T09:39:36.380Z,101214.28
2022-12-19T09:42:40.705Z,101205.78
2022-12-19T09:45:33.251Z,101213.09
2022-12-19T09:48:01.631Z,101208.88
2022-12-19T09:51:11.148Z,101219.38
2022-12-19T09:54:03.953Z,101210.69
2022-12-19T09:56:45.922Z,101210.19
2022-12-19T09:59:39.798Z,101208.59
2022-12-19T10:02:44.140Z,101211.69
2022-12-19T10:07:16.032Z,101207.09
2022-12-19T10:08:53.791Z,101215.19
2022-12-19T10:12:44.231Z,101215.19
2022-12-19T10:15:10.641Z,101196.41
2022-12-19T10:18:12.147Z,101194.09
2022-12-19T10:20:46.434Z,101200.28
2022-12-19T10:23:54.802Z,101201.28
2022-12-19T10:26:44.980Z,101201.19
2022-12-19T10:29:46.674Z,101205.09
2022-12-19T10:32:34.081Z,101195.59
2022-12-19T10:35:01.574Z,101186.47
2022-12-19T10:37:49.654Z,101194.66
2022-12-19T10:40:35.158Z,101193.75
2022-12-19T10:43:33.924Z,101183.38
2022-12-19T10:46:14.361Z,101146.88
2022-12-19T10:48:41.501Z,101158.25
2022-12-19T10:51:23.986Z,101175.06
2022-12-19T10:53:57.328Z,101178.44
2022-12-19T10:56:37.131Z,101181.16
2022-12-19T10:59:16.300Z,101173.78
2022-12-19T11:01:44.550Z,101169.47
2022-12-19T11:04:29.220Z,101154.63
2022-12-19T11:07:21.288Z,101148.06
2022-12-19T11:09:55.694Z,101154.16
2022-12-19T11:16:02.834Z,101151.84
2022-12-19T11:20:40.374Z,101149.34
2022-12-19T11:28:43.352Z,101146.03
2022-12-19T11:29:32.816Z,101127.28
2022-12-19T11:29:38.395Z,101138.31
2022-12-19T11:30:44.127Z,101120.66
2022-12-19T11:32:46.383Z,101118.72
2022-12-19T11:35:24.399Z,101116.13
2022-12-19T11:38:06.252Z,101119.00
2022-12-19T11:40:51.636Z,101120.97
2022-12-19T11:43:49.798Z,101114.88
2022-12-19T11:46:44.064Z,101106.34
2022-12-19T11:49:55.280Z,101097.13
2022-12-19T11:53:20.369Z,101110.50
2022-12-19T11:55:51.372Z,101100.81
2022-12-19T11:58:18.663Z,101098.38
2022-12-19T12:01:35.033Z,101111.75
2022-12-19T12:05:02.166Z,101105.03
2022-12-19T12:07:37.411Z,101099.91
2022-12-19T12:16:19.740Z,101088.78
2022-12-19T12:19:39.169Z,101094.44
2022-12-19T12:28:39.841Z,101092.81
2022-12-19T12:31:13.018Z,101087.69
2022-12-19T12:31:42.403Z,101083.13
2022-12-19T12:31:45.130Z,101095.50
2022-12-19T12:31:47.730Z,101095.41
2022-12-19T12:35:43.568Z,101071.19
2022-12-19T12:39:08.606Z,101095.69
2022-12-19T12:42:07.146Z,101098.66
2022-12-19T12:44:57.473Z,101100.63
2022-12-19T12:47:29.559Z,101093.78
2022-12-19T12:50:06.854Z,101085.25
2022-12-19T12:52:48.200Z,101083.56
2022-12-19T12:55:29.663Z,101080.06
2022-12-19T12:57:57.595Z,101085.53
2022-12-19T13:00:33.054Z,101092.63
2022-12-19T13:03:22.652Z,101084.72
2022-12-19T13:05:49.622Z,101086.69
2022-12-19T13:09:09.113Z,101081.47
2022-12-19T13:12:09.328Z,101075.19
2022-12-19T13:14:37.218Z,101086.75
2022-12-19T13:17:13.745Z,101084.25
2022-12-19T13:19:56.047Z,101087.66
2022-12-19T13:22:42.574Z,101086.69
2022-12-19T13:25:38.613Z,101085.88
2022-12-19T13:28:16.272Z,101083.34
2022-12-19T13:31:19.273Z,101073.03
2022-12-19T13:33:56.076Z,101069.44
2022-12-19T13:39:49.081Z,101070.25
2022-12-19T13:40:08.987Z,101070.25
2022-12-19T13:43:09.977Z,101078.22
2022-12-19T13:45:41.881Z,101074.72
2022-12-19T13:48:23.042Z,101074.72
2022-12-19T13:50:51.218Z,101072.94
2022-12-19T13:53:27.889Z,101083.28
2022-12-19T13:56:11.174Z,101073.75
2022-12-19T13:59:00.105Z,101070.16
2022-12-19T14:01:38.282Z,101068.44
2022-12-19T14:04:13.730Z,101068.34
2022-12-19T14:06:46.133Z,101067.28
2022-12-19T14:11:31.692Z,101071.78
2022-12-19T14:13:57.056Z,101064.78
2022-12-19T14:15:52.136Z,101067.13
2022-12-19T14:18:42.731Z,101069.63
2022-12-19T14:22:10.740Z,101067.03
2022-12-19T14:24:20.247Z,101064.25
2022-12-19T14:28:20.124Z,101060.75
2022-12-19T14:30:27.323Z,101054.56
2022-12-19T14:33:45.559Z,101050.16
2022-12-19T14:36:09.920Z,101043.88
2022-12-19T14:39:20.656Z,101047.28
2022-12-19T14:42:02.504Z,101034.09
2022-12-19T14:53:53.003Z,101030.34
2022-12-19T14:54:04.473Z,101032.03
2022-12-19T14:54:25.926Z,101035.28
2022-12-19T14:54:30.492Z,101033.66
2022-12-19T14:59:03.216Z,101038.34
2022-12-19T15:01:34.255Z,101039.88
2022-12-19T15:04:49.572Z,101027.66
2022-12-19T15:07:11.797Z,101030.00
2022-12-19T15:11:05.458Z,101025.31
2022-12-19T15:14:55.122Z,101031.25
2022-12-19T15:16:36.505Z,101011.97
2022-12-19T15:19:12.106Z,101015.47
2022-12-19T15:21:39.125Z,101018.50
2022-12-19T15:24:06.255Z,101019.22
2022-12-19T15:26:36.715Z,101020.13
2022-12-19T15:29:12.930Z,101008.81
2022-12-19T15:31:44.395Z,101014.91
2022-12-19T15:34:35.081Z,101005.84
2022-12-19T15:37:04.128Z,101012.03
2022-12-19T15:39:31.234Z,101013.75
2022-12-19T15:42:00.577Z,101017.78
2022-12-19T15:44:40.288Z,101010.69
2022-12-19T15:47:17.529Z,101021.81
2022-12-19T15:49:44.673Z,101016.53
2022-12-19T15:52:21.136Z,101013.84
2022-12-19T15:54:50.143Z,101012.13
2022-12-19T15:57:37.843Z,101014.72
2022-12-19T16:00:18.593Z,101019.94
2022-12-19T16:03:22.788Z,101015.72
2022-12-19T16:05:34.385Z,100996.44
2022-12-19T16:08:01.496Z,100996.34
2022-12-19T16:10:29.022Z,101004.16
2022-12-19T16:12:58.142Z,101005.22
2022-12-19T16:15:32.007Z,100998.50
2022-12-19T16:18:01.270Z,100999.22
2022-12-19T16:20:31.957Z,101006.41
2022-12-19T16:23:00.345Z,101002.00
2022-12-19T16:25:46.868Z,100995.72
2022-12-19T16:28:25.499Z,100998.41
2022-12-19T16:30:53.189Z,100990.59
2022-12-19T16:33:24.313Z,100997.50
2022-12-19T16:36:07.436Z,101000.13
2022-12-19T16:38:35.837Z,101003.69
2022-12-19T16:41:03.120Z,100995.00
2022-12-19T16:43:40.453Z,100993.22
2022-12-19T16:46:08.737Z,100997.69
2022-12-19T16:48:36.084Z,100992.59
2022-12-19T16:51:03.658Z,100984.06
2022-12-19T16:53:31.234Z,100975.44
2022-12-19T16:56:00.708Z,100981.63
2022-12-19T16:58:28.931Z,100978.06
2022-12-19T17:00:59.141Z,100979.84
2022-12-19T17:03:35.239Z,100982.34
2022-12-19T17:07:05.588Z,100976.97
2022-12-19T17:09:32.541Z,100972.59
2022-12-19T17:12:02.160Z,100969.09
2022-12-19T17:14:32.230Z,100956.63
2022-12-19T17:17:00.269Z,100951.50
2022-12-19T17:19:38.838Z,100950.59
2022-12-19T17:22:17.959Z,100946.94
2022-12-19T17:24:49.561Z,100947.81
2022-12-19T17:27:17.625Z,100944.41
2022-12-19T17:29:45.645Z,100938.41
2022-12-19T17:32:23.217Z,100934.81
2022-12-19T17:34:52.395Z,100934.81
2022-12-19T17:37:19.394Z,100938.59
2022-12-19T17:39:46.394Z,100936.88
2022-12-19T17:42:22.362Z,100947.47
2022-12-19T17:44:49.777Z,100932.75
2022-12-19T17:47:19.867Z,100934.53
2022-12-19T17:49:48.589Z,100931.06
2022-12-19T17:52:18.920Z,100935.34
2022-12-19T17:54:46.237Z,100930.97
2022-12-19T17:57:15.644Z,100930.88
2022-12-19T17:59:43.867Z,100925.66
2022-12-19T18:02:23.465Z,100915.00
2022-12-19T18:04:52.451Z,100923.88
2022-12-19T18:07:20.359Z,100918.50
2022-12-19T18:09:47.659Z,100921.81
2022-12-19T18:12:18.152Z,100911.41
2022-12-19T18:14:45.347Z,100919.22
2022-12-19T18:17:20.889Z,100922.63
2022-12-19T18:19:49.079Z,100914.00
2022-12-19T18:22:18.386Z,100911.41
2022-12-19T18:24:45.559Z,100922.63
2022-12-19T18:27:13.118Z,100921.81
2022-12-19T18:29:40.283Z,100920.19
2022-12-19T18:32:15.778Z,100910.16
2022-12-19T18:34:44.437Z,100906.56
2022-12-19T18:37:17.452Z,100922.34
2022-12-19T18:39:44.550Z,100921.53
2022-12-19T18:42:20.834Z,100914.38
2022-12-19T18:44:48.449Z,100923.25
2022-12-19T18:47:23.647Z,100926.28
2022-12-19T18:49:52.450Z,100924.22
2022-12-19T18:52:19.452Z,100926.91
2022-12-19T18:54:46.527Z,100920.00
2022-12-19T18:57:14.683Z,100926.91
2022-12-19T18:59:41.882Z,100915.59
2022-12-19T19:02:26.389Z,100910.31
2022-12-19T19:04:55.960Z,100906.00
2022-12-19T19:07:23.313Z,100906.09
2022-12-19T19:09:50.401Z,100909.75
2022-12-19T19:12:17.431Z,100903.66
2022-12-19T19:14:44.982Z,100915.94
2022-12-19T19:17:32.229Z,100909.84
2022-12-19T19:19:59.763Z,100901.13
2022-12-19T19:22:26.811Z,100917.09
2022-12-19T19:24:53.855Z,100912.78
2022-12-19T19:27:20.848Z,100915.47
2022-12-19T19:30:01.809Z,100915.66
2022-12-19T19:32:28.837Z,100899.94
2022-12-19T19:34:56.091Z,100900.75
2022-12-19T19:37:23.563Z,100912.97
2022-12-19T19:39:50.651Z,100922.56
2022-12-19T19:42:18.826Z,100910.34
2022-12-19T19:44:46.462Z,100906.13
2022-12-19T19:47:14.047Z,100912.31
2022-12-19T19:49:41.243Z,100918.50
2022-12-19T19:52:08.454Z,100916.81
2022-12-19T19:54:35.816Z,100912.31
2022-12-19T19:57:03.153Z,100910.63
2022-12-19T19:59:31.591Z,100907.94
2022-12-19T20:02:00.238Z,100903.69
2022-12-19T20:04:27.520Z,100908.09
2022-12-19T20:06:54.783Z,100900.13
2022-12-19T20:09:21.888Z,100901.19
2022-12-19T20:11:49.078Z,100888.97
2022-12-19T20:14:16.218Z,100900.47
2022-12-19T20:16:43.665Z,100890.59
2022-12-19T20:19:10.840Z,100909.97
2022-12-19T20:21:37.834Z,100903.06
2022-12-19T20:24:05.103Z,100894.44
2022-12-19T20:26:32.157Z,100896.97
2022-12-19T20:28:59.267Z,100902.06
2022-12-19T20:31:26.998Z,100897.84
2022-12-19T20:33:55.718Z,100894.53
2022-12-19T20:36:24.257Z,100903.97
2022-12-19T20:38:55.778Z,100895.34
2022-12-19T20:41:22.806Z,100904.03
2022-12-19T20:43:49.914Z,100917.31
2022-12-19T20:46:20.839Z,100913.00
2022-12-19T20:48:49.289Z,100927.00
2022-12-19T20:51:19.116Z,100917.41
2022-12-19T20:53:46.745Z,100918.47
2022-12-19T20:56:17.224Z,100915.78
2022-12-19T20:58:45.241Z,100911.56
2022-12-19T21:08:07.350Z,100910.09
2022-12-19T21:10:36.645Z,100909.13
2022-12-19T21:13:03.647Z,100924.09
2022-12-19T21:15:31.825Z,100922.38
2022-12-19T21:18:01.492Z,100933.06
2022-12-19T21:20:34.225Z,100931.19
2022-12-19T21:23:01.548Z,100923.38
2022-12-19T21:25:28.542Z,100931.50
2022-12-19T21:27:55.978Z,100930.06
2022-12-19T21:30:23.141Z,100929.34
2022-12-19T21:32:50.086Z,100929.59
2022-12-19T21:35:38.735Z,100930.66
2022-12-19T21:38:18.570Z,100925.44
2022-12-19T21:40:47.704Z,100937.97
2022-12-19T21:43:14.902Z,100939.78
2022-12-19T21:45:41.867Z,100945.78
2022-12-19T21:48:09.396Z,100942.13
2022-12-19T21:50:36.461Z,100941.22
2022-12-19T21:53:03.422Z,100941.22
2022-12-19T21:55:30.436Z,100940.66
2022-12-19T21:57:57.621Z,100945.88
2022-12-19T22:00:26.100Z,100954.66
2022-12-19T22:03:12.581Z,100963.56
2022-12-19T22:05:40.171Z,100967.69
2022-12-19T22:08:08.519Z,100970.22
2022-12-19T22:10:38.521Z,100963.22
2022-12-19T22:13:05.488Z,100967.78
2022-12-19T22:15:32.417Z,100972.00
2022-12-19T22:17:59.515Z,100979.09
2022-12-19T22:20:26.442Z,100953.78
2022-12-19T22:22:54.396Z,100958.53
2022-12-19T22:25:21.364Z,100948.72
2022-12-19T22:27:48.294Z,100954.91
2022-12-19T22:30:15.808Z,100961.06
2022-12-19T22:32:42.764Z,100970.56
2022-12-19T22:35:09.791Z,100960.38
2022-12-19T22:37:36.779Z,100961.56
2022-12-19T22:40:04.663Z,100946.66
2022-12-19T22:42:31.631Z,100945.78
2022-12-19T22:44:59.377Z,100952.69
2022-12-19T22:47:26.402Z,100943.00
2022-12-19T22:49:53.459Z,100952.69
2022-12-19T22:52:20.396Z,100946.66
2022-12-19T22:54:47.381Z,100938.03
2022-12-19T22:57:14.354Z,100946.75
2022-12-19T22:59:42.999Z,100957.34
2022-12-19T23:02:10.358Z,100963.34
2022-12-19T23:04:37.464Z,100962.47
2022-12-19T23:07:04.431Z,100956.59
2022-12-19T23:09:31.360Z,100955.78
2022-12-19T23:11:58.303Z,100947.09
2022-12-19T23:14:25.259Z,100953.09
2022-12-19T23:16:52.384Z,100951.22
2022-12-19T23:19:19.385Z,100966.22
2022-12-19T23:21:46.748Z,100954.97
2022-12-19T23:24:14.192Z,100948.88
2022-12-19T23:26:41.374Z,100952.38
2022-12-19T23:29:13.114Z,100941.16
2022-12-19T23:31:45.970Z,100948.06
2022-12-19T23:34:14.512Z,100941.16
2022-12-19T23:39:28.532Z,100942.69
2022-12-19T23:41:58.694Z,100942.03
2022-12-19T23:44:25.958Z,100943.19
2022-12-19T23:47:03.800Z,100946.69
2022-12-19T23:49:33.216Z,100947.75
2022-12-19T23:52:00.340Z,100940.66
2022-12-19T23:54:27.417Z,100925.03
2022-12-19T23:56:54.448Z,100932.69
2022-12-19T23:59:21.483Z,100925.53
